YBR weather

Brandon Municipal Airport
Brandon, Manitoba, Canada

Public forecast

Using degrees Celsius for public forecast. Weather courtesy of forecast.io.

METAR (pilot weather report)

Retrieved 2019/03/21 03:00 UTC (37 minutes ago):

CYBR 210300Z 26009KT 15SM SKC M00/M02 A3010 RMK SLP217

TAF (pilot weather forecast)

Forecast is more than 12 hours old.

Retrieved 2019/03/20 00:42 UTC (1 day ago):

TAF CYBR 202338Z 2100/2112 26010KT P6SM SCT250 BECMG 2110/2112 31010KT RMK NXT FCST BY 210600Z